sensor_id;sensor_type;location;lat;lon;timestamp;pressure;altitude;pressure_sealevel;temperature;humidity
76973;BME280;65907;53.640;10.050;2023-06-01T00:01:23;101615.66;;;24.23;39.21
76973;BME280;65907;53.640;10.050;2023-06-01T00:03:50;101614.19;;;24.30;39.15
76973;BME280;65907;53.640;10.050;2023-06-01T00:06:15;101618.22;;;24.34;38.87
76973;BME280;65907;53.640;10.050;2023-06-01T00:08:41;101613.75;;;24.25;38.99
76973;BME280;65907;53.640;10.050;2023-06-01T00:11:06;101616.53;;;24.33;38.63
76973;BME280;65907;53.640;10.050;2023-06-01T00:13:31;101611.09;;;24.25;39.11
76973;BME280;65907;53.640;10.050;2023-06-01T00:15:56;101613.59;;;24.26;38.92
76973;BME280;65907;53.640;10.050;2023-06-01T00:18:22;101609.81;;;24.19;39.28
76973;BME280;65907;53.640;10.050;2023-06-01T00:20:47;101609.50;;;24.12;39.10
76973;BME280;65907;53.640;10.050;2023-06-01T00:23:12;101610.78;;;24.18;39.33
76973;BME280;65907;53.640;10.050;2023-06-01T00:25:37;101602.31;;;24.14;39.23
76973;BME280;65907;53.640;10.050;2023-06-01T00:28:03;101603.41;;;24.12;39.25
76973;BME280;65907;53.640;10.050;2023-06-01T00:30:28;101610.47;;;24.11;39.08
76973;BME280;65907;53.640;10.050;2023-06-01T00:32:53;101595.53;;;24.12;39.26
76973;BME280;65907;53.640;10.050;2023-06-01T00:35:19;101599.69;;;24.14;39.17
76973;BME280;65907;53.640;10.050;2023-06-01T00:37:44;101605.53;;;24.18;39.08
76973;BME280;65907;53.640;10.050;2023-06-01T00:40:09;101598.47;;;24.18;38.94
76973;BME280;65907;53.640;10.050;2023-06-01T00:42:35;101597.50;;;24.19;38.90
76973;BME280;65907;53.640;10.050;2023-06-01T00:45:00;101598.78;;;24.25;38.84
76973;BME280;65907;53.640;10.050;2023-06-01T00:47:25;101593.09;;;24.20;39.12
76973;BME280;65907;53.640;10.050;2023-06-01T00:49:51;101590.13;;;24.13;38.79
76973;BME280;65907;53.640;10.050;2023-06-01T00:52:16;101591.53;;;24.17;39.07
76973;BME280;65907;53.640;10.050;2023-06-01T00:54:42;101584.19;;;24.11;39.08
76973;BME280;65907;53.640;10.050;2023-06-01T00:57:07;101583.66;;;24.17;38.81
76973;BME280;65907;53.640;10.050;2023-06-01T00:59:33;101582.25;;;24.13;38.78
76973;BME280;65907;53.640;10.050;2023-06-01T01:01:59;101577.16;;;24.12;38.90
76973;BME280;65907;53.640;10.050;2023-06-01T01:04:24;101586.91;;;24.10;39.14
76973;BME280;65907;53.640;10.050;2023-06-01T01:14:41;101587.59;;;24.02;38.98
76973;BME280;65907;53.640;10.050;2023-06-01T01:30:03;101593.88;;;24.11;38.61
76973;BME280;65907;53.640;10.050;2023-06-01T01:32:31;101604.94;;;24.14;38.67
76973;BME280;65907;53.640;10.050;2023-06-01T01:34:56;101592.06;;;24.11;38.58
76973;BME280;65907;53.640;10.050;2023-06-01T01:37:22;101591.09;;;24.12;38.70
76973;BME280;65907;53.640;10.050;2023-06-01T01:39:48;101585.03;;;24.12;38.67
76973;BME280;65907;53.640;10.050;2023-06-01T01:42:13;101581.56;;;24.11;38.88
76973;BME280;65907;53.640;10.050;2023-06-01T01:44:38;101584.44;;;24.08;39.08
76973;BME280;65907;53.640;10.050;2023-06-01T01:47:25;101577.63;;;24.05;38.99
76973;BME280;65907;53.640;10.050;2023-06-01T01:49:53;101587.06;;;24.08;38.99
76973;BME280;65907;53.640;10.050;2023-06-01T01:52:33;101583.91;;;24.14;38.46
76973;BME280;65907;53.640;10.050;2023-06-01T01:55:00;101577.16;;;24.12;38.70
76973;BME280;65907;53.640;10.050;2023-06-01T01:57:26;101569.25;;;24.12;38.63
76973;BME280;65907;53.640;10.050;2023-06-01T01:59:53;101573.28;;;24.16;38.55
76973;BME280;65907;53.640;10.050;2023-06-01T02:02:18;101573.66;;;24.11;38.63
76973;BME280;65907;53.640;10.050;2023-06-01T02:04:44;101564.81;;;24.12;38.47
76973;BME280;65907;53.640;10.050;2023-06-01T02:07:11;101561.25;;;24.13;38.57
76973;BME280;65907;53.640;10.050;2023-06-01T02:09:36;101567.13;;;24.05;38.75
76973;BME280;65907;53.640;10.050;2023-06-01T02:12:01;101559.84;;;24.09;38.90
76973;BME280;65907;53.640;10.050;2023-06-01T02:14:27;101562.47;;;24.09;38.41
76973;BME280;65907;53.640;10.050;2023-06-01T02:16:52;101564.25;;;24.09;38.59
76973;BME280;65907;53.640;10.050;2023-06-01T02:19:18;101558.88;;;24.10;38.75
76973;BME280;65907;53.640;10.050;2023-06-01T02:21:44;101560.34;;;24.03;38.66
76973;BME280;65907;53.640;10.050;2023-06-01T02:24:09;101563.69;;;24.05;38.66
76973;BME280;65907;53.640;10.050;2023-06-01T02:26:35;101562.72;;;24.06;38.58
76973;BME280;65907;53.640;10.050;2023-06-01T02:29:03;101559.50;;;24.02;38.79
76973;BME280;65907;53.640;10.050;2023-06-01T02:31:30;101564.75;;;24.02;38.64
76973;BME280;65907;53.640;10.050;2023-06-01T02:34:01;101562.84;;;24.04;38.71
76973;BME280;65907;53.640;10.050;2023-06-01T02:36:27;101570.97;;;24.01;38.75
76973;BME280;65907;53.640;10.050;2023-06-01T02:38:53;101566.44;;;24.03;38.59
76973;BME280;65907;53.640;10.050;2023-06-01T02:41:19;101568.94;;;24.05;38.71
76973;BME280;65907;53.640;10.050;2023-06-01T02:43:46;101559.75;;;23.99;38.78
76973;BME280;65907;53.640;10.050;2023-06-01T02:46:11;101558.78;;;24.00;38.59
76973;BME280;65907;53.640;10.050;2023-06-01T02:48:36;101561.50;;;23.99;38.66
76973;BME280;65907;53.640;10.050;2023-06-01T02:51:01;101564.03;;;24.00;38.54
76973;BME280;65907;53.640;10.050;2023-06-01T02:53:27;101560.69;;;23.98;38.67
76973;BME280;65907;53.640;10.050;2023-06-01T02:55:54;101557.22;;;23.98;38.66
76973;BME280;65907;53.640;10.050;2023-06-01T02:58:20;101556.06;;;23.90;38.87
76973;BME280;65907;53.640;10.050;2023-06-01T03:00:45;101559.03;;;23.97;38.67
76973;BME280;65907;53.640;10.050;2023-06-01T03:03:12;101556.94;;;23.91;38.84
76973;BME280;65907;53.640;10.050;2023-06-01T03:05:37;101562.88;;;23.93;38.65
76973;BME280;65907;53.640;10.050;2023-06-01T03:08:08;101560.59;;;24.00;38.60
76973;BME280;65907;53.640;10.050;2023-06-01T03:10:33;101557.97;;;24.00;38.56
76973;BME280;65907;53.640;10.050;2023-06-01T03:12:58;101550.56;;;23.94;38.69
76973;BME280;65907;53.640;10.050;2023-06-01T03:15:24;101554.16;;;23.92;38.92
76973;BME280;65907;53.640;10.050;2023-06-01T03:17:49;101551.97;;;23.98;38.64
76973;BME280;65907;53.640;10.050;2023-06-01T03:20:15;101545.47;;;23.92;38.57
76973;BME280;65907;53.640;10.050;2023-06-01T03:22:44;101544.34;;;23.95;38.65
76973;BME280;65907;53.640;10.050;2023-06-01T03:25:10;101543.66;;;23.92;38.72
76973;BME280;65907;53.640;10.050;2023-06-01T03:27:36;101535.91;;;23.91;38.67
76973;BME280;65907;53.640;10.050;2023-06-01T03:30:01;101537.25;;;23.85;38.80
76973;BME280;65907;53.640;10.050;2023-06-01T03:32:27;101530.91;;;23.88;38.76
76973;BME280;65907;53.640;10.050;2023-06-01T03:34:52;101527.88;;;23.92;38.76
76973;BME280;65907;53.640;10.050;2023-06-01T03:37:17;101535.66;;;23.94;38.64
76973;BME280;65907;53.640;10.050;2023-06-01T03:39:43;101546.41;;;23.91;38.75
76973;BME280;65907;53.640;10.050;2023-06-01T03:42:08;101535.75;;;23.92;38.76
76973;BME280;65907;53.640;10.050;2023-06-01T03:44:34;101545.31;;;23.94;38.60
76973;BME280;65907;53.640;10.050;2023-06-01T03:46:59;101541.28;;;23.89;38.53
76973;BME280;65907;53.640;10.050;2023-06-01T03:49:24;101536.53;;;23.83;38.72
76973;BME280;65907;53.640;10.050;2023-06-01T03:51:50;101536.53;;;23.83;38.53
76973;BME280;65907;53.640;10.050;2023-06-01T03:54:16;101538.72;;;23.78;38.81
76973;BME280;65907;53.640;10.050;2023-06-01T03:56:41;101540.06;;;23.94;38.58
76973;BME280;65907;53.640;10.050;2023-06-01T03:59:09;101541.44;;;23.88;38.54
76973;BME280;65907;53.640;10.050;2023-06-01T04:01:35;101537.94;;;23.87;38.73
76973;BME280;65907;53.640;10.050;2023-06-01T04:04:04;101536.66;;;23.82;38.79
76973;BME280;65907;53.640;10.050;2023-06-01T04:06:30;101530.72;;;23.80;38.83
76973;BME280;65907;53.640;10.050;2023-06-01T04:09:00;101532.50;;;23.79;38.65
76973;BME280;65907;53.640;10.050;2023-06-01T04:11:31;101533.22;;;23.81;38.93
76973;BME280;65907;53.640;10.050;2023-06-01T04:13:56;101538.47;;;23.81;38.58
76973;BME280;65907;53.640;10.050;2023-06-01T04:16:22;101530.38;;;23.73;38.85
76973;BME280;65907;53.640;10.050;2023-06-01T04:18:47;101533.59;;;23.76;39.05
76973;BME280;65907;53.640;10.050;2023-06-01T04:21:12;101533.59;;;23.76;38.67
76973;BME280;65907;53.640;10.050;2023-06-01T04:23:37;101534.75;;;23.84;38.57
76973;BME280;65907;53.640;10.050;2023-06-01T04:26:03;101526.94;;;23.72;38.62
76973;BME280;65907;53.640;10.050;2023-06-01T04:28:30;101540.41;;;23.79;38.92
76973;BME280;65907;53.640;10.050;2023-06-01T04:30:56;101535.69;;;23.83;38.62
76973;BME280;65907;53.640;10.050;2023-06-01T04:33:21;101540.25;;;23.81;38.63
76973;BME280;65907;53.640;10.050;2023-06-01T04:35:50;101540.88;;;23.73;38.94
76973;BME280;65907;53.640;10.050;2023-06-01T04:38:18;101546.09;;;23.84;38.45
76973;BME280;65907;53.640;10.050;2023-06-01T04:40:43;101541.22;;;23.80;38.89
76973;BME280;65907;53.640;10.050;2023-06-01T04:43:10;101543.38;;;23.74;38.58
76973;BME280;65907;53.640;10.050;2023-06-01T04:45:36;101544.53;;;23.82;38.46
76973;BME280;65907;53.640;10.050;2023-06-01T04:48:03;101542.31;;;23.98;38.25
76973;BME280;65907;53.640;10.050;2023-06-01T04:50:33;101537.41;;;24.05;37.90
76973;BME280;65907;53.640;10.050;2023-06-01T04:52:59;101542.94;;;24.02;38.39
76973;BME280;65907;53.640;10.050;2023-06-01T04:55:25;101543.75;;;24.02;38.18
76973;BME280;65907;53.640;10.050;2023-06-01T04:57:50;101534.63;;;24.06;38.05
76973;BME280;65907;53.640;10.050;2023-06-01T05:00:16;101525.94;;;24.06;37.77
76973;BME280;65907;53.640;10.050;2023-06-01T05:02:43;101519.72;;;24.07;38.18
76973;BME280;65907;53.640;10.050;2023-06-01T05:05:09;101522.47;;;24.05;38.13
76973;BME280;65907;53.640;10.050;2023-06-01T05:07:35;101527.88;;;24.04;38.01
76973;BME280;65907;53.640;10.050;2023-06-01T05:10:01;101519.47;;;23.99;38.34
76973;BME280;65907;53.640;10.050;2023-06-01T05:12:30;101519.50;;;23.77;39.02
76973;BME280;65907;53.640;10.050;2023-06-01T05:14:56;101526.13;;;22.02;38.86
76973;BME280;65907;53.640;10.050;2023-06-01T05:17:21;101519.97;;;21.06;41.03
76973;BME280;65907;53.640;10.050;2023-06-01T05:19:46;101517.88;;;21.84;41.17
76973;BME280;65907;53.640;10.050;2023-06-01T05:22:11;101521.06;;;22.24;40.06
76973;BME280;65907;53.640;10.050;2023-06-01T05:24:37;101513.00;;;22.72;38.93
76973;BME280;65907;53.640;10.050;2023-06-01T05:27:02;101521.34;;;22.66;38.99
76973;BME280;65907;53.640;10.050;2023-06-01T05:29:34;101523.22;;;21.58;39.71
76973;BME280;65907;53.640;10.050;2023-06-01T05:32:00;101513.47;;;21.85;39.94
76973;BME280;65907;53.640;10.050;2023-06-01T05:34:28;101527.00;;;22.26;39.87
76973;BME280;65907;53.640;10.050;2023-06-01T05:36:53;101520.03;;;22.49;39.18
76973;BME280;65907;53.640;10.050;2023-06-01T05:39:18;101517.03;;;22.54;38.76
76973;BME280;65907;53.640;10.050;2023-06-01T05:41:43;101515.88;;;22.46;39.29
76973;BME280;65907;53.640;10.050;2023-06-01T05:44:11;101517.47;;;22.36;39.38
76973;BME280;65907;53.640;10.050;2023-06-01T05:46:36;101508.09;;;22.33;39.08
76973;BME280;65907;53.640;10.050;2023-06-01T05:49:04;101514.16;;;22.34;39.22
76973;BME280;65907;53.640;10.050;2023-06-01T05:51:29;101515.81;;;22.35;38.97
76973;BME280;65907;53.640;10.050;2023-06-01T05:54:01;101514.38;;;22.31;39.35
76973;BME280;65907;53.640;10.050;2023-06-01T05:56:27;101523.53;;;22.25;39.41
76973;BME280;65907;53.640;10.050;2023-06-01T05:58:52;101512.97;;;22.38;38.88
76973;BME280;65907;53.640;10.050;2023-06-01T06:01:18;101519.38;;;22.34;39.06
76973;BME280;65907;53.640;10.050;2023-06-01T06:03:43;101517.13;;;22.29;39.08
76973;BME280;65907;53.640;10.050;2023-06-01T06:06:10;101513.88;;;22.14;39.27
76973;BME280;65907;53.640;10.050;2023-06-01T06:08:35;101520.81;;;22.27;39.06
76973;BME280;65907;53.640;10.050;2023-06-01T06:11:00;101514.13;;;22.11;39.30
76973;BME280;65907;53.640;10.050;2023-06-01T06:13:26;101519.38;;;22.23;39.03
76973;BME280;65907;53.640;10.050;2023-06-01T06:15:51;101511.75;;;22.19;39.32
76973;BME280;65907;53.640;10.050;2023-06-01T06:18:16;101512.84;;;22.28;39.01
76973;BME280;65907;53.640;10.050;2023-06-01T06:20:41;101504.50;;;22.34;39.02
76973;BME280;65907;53.640;10.050;2023-06-01T06:23:07;101505.44;;;22.45;38.79
76973;BME280;65907;53.640;10.050;2023-06-01T06:25:35;101513.00;;;22.49;38.56
76973;BME280;65907;53.640;10.050;2023-06-01T06:28:03;101507.50;;;22.53;38.46
76973;BME280;65907;53.640;10.050;2023-06-01T06:30:32;101506.88;;;22.95;37.88
76973;BME280;65907;53.640;10.050;2023-06-01T06:32:58;101508.84;;;23.25;37.47
76973;BME280;65907;53.640;10.050;2023-06-01T06:35:23;101513.56;;;23.43;37.21
76973;BME280;65907;53.640;10.050;2023-06-01T06:37:51;101514.34;;;23.55;36.79
76973;BME280;65907;53.640;10.050;2023-06-01T06:40:16;101508.72;;;23.59;36.66
76973;BME280;65907;53.640;10.050;2023-06-01T06:42:43;101511.91;;;23.63;36.92
76973;BME280;65907;53.640;10.050;2023-06-01T06:45:08;101512.66;;;23.65;36.95
76973;BME280;65907;53.640;10.050;2023-06-01T06:47:33;101518.72;;;23.66;36.41
76973;BME280;65907;53.640;10.050;2023-06-01T06:49:59;101527.31;;;23.68;36.77
76973;BME280;65907;53.640;10.050;2023-06-01T06:52:24;101527.38;;;23.77;36.66
76973;BME280;65907;53.640;10.050;2023-06-01T06:54:49;101522.00;;;23.79;36.60
76973;BME280;65907;53.640;10.050;2023-06-01T06:57:15;101526.31;;;23.80;36.56
76973;BME280;65907;53.640;10.050;2023-06-01T06:59:40;101525.56;;;23.13;36.97
76973;BME280;65907;53.640;10.050;2023-06-01T07:02:05;101531.66;;;22.45;37.66
76973;BME280;65907;53.640;10.050;2023-06-01T07:04:31;101521.91;;;22.35;38.02
76973;BME280;65907;53.640;10.050;2023-06-01T07:06:56;101524.91;;;21.95;38.91
76973;BME280;65907;53.640;10.050;2023-06-01T07:09:21;101525.31;;;21.66;39.06
76973;BME280;65907;53.640;10.050;2023-06-01T07:11:47;101523.50;;;20.81;40.73
76973;BME280;65907;53.640;10.050;2023-06-01T07:14:13;101523.09;;;20.61;41.49
76973;BME280;65907;53.640;10.050;2023-06-01T07:16:38;101520.16;;;20.53;41.59
76973;BME280;65907;53.640;10.050;2023-06-01T07:19:03;101519.31;;;20.52;41.67
76973;BME280;65907;53.640;10.050;2023-06-01T07:21:29;101520.56;;;20.46;41.86
76973;BME280;65907;53.640;10.050;2023-06-01T07:23:57;101524.03;;;20.34;41.97
76973;BME280;65907;53.640;10.050;2023-06-01T07:26:22;101530.00;;;20.23;42.15
76973;BME280;65907;53.640;10.050;2023-06-01T07:28:54;101529.44;;;20.18;42.17
76973;BME280;65907;53.640;10.050;2023-06-01T07:31:21;101534.34;;;19.97;42.67
76973;BME280;65907;53.640;10.050;2023-06-01T07:33:49;101530.81;;;20.24;42.11
76973;BME280;65907;53.640;10.050;2023-06-01T07:36:17;101542.31;;;20.08;42.46
76973;BME280;65907;53.640;10.050;2023-06-01T07:38:43;101540.00;;;20.03;42.68
76973;BME280;65907;53.640;10.050;2023-06-01T07:41:10;101538.03;;;20.07;42.21
76973;BME280;65907;53.640;10.050;2023-06-01T07:43:36;101538.03;;;20.20;42.18
76973;BME280;65907;53.640;10.050;2023-06-01T07:46:04;101547.72;;;20.18;41.99
76973;BME280;65907;53.640;10.050;2023-06-01T07:48:32;101536.47;;;20.17;42.22
76973;BME280;65907;53.640;10.050;2023-06-01T07:51:03;101530.34;;;19.91;42.90
76973;BME280;65907;53.640;10.050;2023-06-01T07:53:31;101534.84;;;20.02;42.71
76973;BME280;65907;53.640;10.050;2023-06-01T07:55:57;101537.09;;;19.81;43.45
76973;BME280;65907;53.640;10.050;2023-06-01T07:58:22;101536.44;;;19.77;43.43
76973;BME280;65907;53.640;10.050;2023-06-01T08:00:47;101539.56;;;19.97;42.96
76973;BME280;65907;53.640;10.050;2023-06-01T08:03:15;101535.34;;;19.94;42.89
76973;BME280;65907;53.640;10.050;2023-06-01T08:05:40;101534.13;;;20.00;42.88
76973;BME280;65907;53.640;10.050;2023-06-01T08:08:07;101527.03;;;20.28;42.38
76973;BME280;65907;53.640;10.050;2023-06-01T08:10:33;101529.97;;;20.10;42.46
76973;BME280;65907;53.640;10.050;2023-06-01T08:12:58;101530.19;;;20.59;41.84
76973;BME280;65907;53.640;10.050;2023-06-01T08:15:24;101530.91;;;20.87;41.22
76973;BME280;65907;53.640;10.050;2023-06-01T08:17:51;101528.19;;;21.26;40.65
76973;BME280;65907;53.640;10.050;2023-06-01T08:20:17;101530.59;;;20.53;41.84
76973;BME280;65907;53.640;10.050;2023-06-01T08:22:46;101525.50;;;20.51;42.37
76973;BME280;65907;53.640;10.050;2023-06-01T08:25:11;101521.50;;;21.22;41.28
76973;BME280;65907;53.640;10.050;2023-06-01T08:27:37;101523.44;;;21.06;41.70
76973;BME280;65907;53.640;10.050;2023-06-01T08:30:02;101529.47;;;20.44;43.22
76973;BME280;65907;53.640;10.050;2023-06-01T08:32:28;101528.94;;;20.26;43.86
76973;BME280;65907;53.640;10.050;2023-06-01T08:34:54;101529.88;;;20.51;43.00
76973;BME280;65907;53.640;10.050;2023-06-01T08:37:19;101539.91;;;20.31;43.64
76973;BME280;65907;53.640;10.050;2023-06-01T08:39:45;101526.63;;;20.08;44.08
76973;BME280;65907;53.640;10.050;2023-06-01T08:42:15;101525.97;;;19.91;43.98
76973;BME280;65907;53.640;10.050;2023-06-01T08:44:44;101520.09;;;19.88;43.73
76973;BME280;65907;53.640;10.050;2023-06-01T08:47:11;101521.50;;;19.94;43.82
76973;BME280;65907;53.640;10.050;2023-06-01T08:49:40;101513.59;;;19.81;43.90
76973;BME280;65907;53.640;10.050;2023-06-01T08:52:07;101519.31;;;20.00;43.36
76973;BME280;65907;53.640;10.050;2023-06-01T08:54:33;101507.84;;;20.55;42.54
76973;BME280;65907;53.640;10.050;2023-06-01T08:56:59;101518.31;;;21.54;40.16
76973;BME280;65907;53.640;10.050;2023-06-01T08:59:25;101517.53;;;21.16;41.25
76973;BME280;65907;53.640;10.050;2023-06-01T09:01:50;101516.38;;;22.04;39.11
76973;BME280;65907;53.640;10.050;2023-06-01T09:04:17;101520.84;;;22.38;38.43
76973;BME280;65907;53.640;10.050;2023-06-01T09:06:42;101521.16;;;21.51;39.95
76973;BME280;65907;53.640;10.050;2023-06-01T09:09:08;101524.94;;;20.98;41.33
76973;BME280;65907;53.640;10.050;2023-06-01T09:11:36;101523.75;;;21.02;41.21
76973;BME280;65907;53.640;10.050;2023-06-01T09:14:04;101514.38;;;21.24;40.82
76973;BME280;65907;53.640;10.050;2023-06-01T09:16:43;101518.94;;;21.09;40.88
76973;BME280;65907;53.640;10.050;2023-06-01T09:19:09;101511.88;;;21.22;40.58
76973;BME280;65907;53.640;10.050;2023-06-01T09:21:34;101506.44;;;21.25;40.51
76973;BME280;65907;53.640;10.050;2023-06-01T09:24:21;101508.31;;;21.23;40.48
76973;BME280;65907;53.640;10.050;2023-06-01T09:26:58;101497.94;;;20.97;41.25
76973;BME280;65907;53.640;10.050;2023-06-01T09:29:24;101494.66;;;20.56;42.21
76973;BME280;65907;53.640;10.050;2023-06-01T09:31:50;101497.72;;;20.37;42.29
76973;BME280;65907;53.640;10.050;2023-06-01T09:34:16;101492.25;;;20.40;42.93
76973;BME280;65907;53.640;10.050;2023-06-01T09:36:46;101490.69;;;20.51;42.12
76973;BME280;65907;53.640;10.050;2023-06-01T09:39:13;101490.91;;;20.34;42.66
76973;BME280;65907;53.640;10.050;2023-06-01T09:44:13;101496.66;;;20.27;43.41
76973;BME280;65907;53.640;10.050;2023-06-01T09:46:48;101491.41;;;20.14;43.86
76973;BME280;65907;53.640;10.050;2023-06-01T09:54:48;101481.09;;;20.12;43.67
76973;BME280;65907;53.640;10.050;2023-06-01T09:57:19;101480.84;;;19.89;44.08
76973;BME280;65907;53.640;10.050;2023-06-01T09:59:46;101473.78;;;20.17;43.69
76973;BME280;65907;53.640;10.050;2023-06-01T10:04:41;101478.88;;;20.06;43.42
76973;BME280;65907;53.640;10.050;2023-06-01T10:07:06;101472.53;;;20.36;42.74
76973;BME280;65907;53.640;10.050;2023-06-01T10:09:35;101471.06;;;20.32;43.13
76973;BME280;65907;53.640;10.050;2023-06-01T10:12:04;101475.66;;;20.28;42.93
76973;BME280;65907;53.640;10.050;2023-06-01T10:14:29;101461.59;;;20.68;42.59
76973;BME280;65907;53.640;10.050;2023-06-01T10:16:55;101461.81;;;20.65;42.39
76973;BME280;65907;53.640;10.050;2023-06-01T10:19:20;101474.19;;;20.37;43.04
76973;BME280;65907;53.640;10.050;2023-06-01T10:21:48;101472.41;;;20.25;43.31
76973;BME280;65907;53.640;10.050;2023-06-01T10:24:17;101472.75;;;20.20;43.59
76973;BME280;65907;53.640;10.050;2023-06-01T10:29:10;101469.47;;;20.42;43.45
76973;BME280;65907;53.640;10.050;2023-06-01T10:31:39;101476.50;;;20.42;43.53
76973;BME280;65907;53.640;10.050;2023-06-01T10:34:06;101465.50;;;20.49;43.37
76973;BME280;65907;53.640;10.050;2023-06-01T10:41:48;101459.47;;;20.23;43.42
76973;BME280;65907;53.640;10.050;2023-06-01T10:44:44;101458.41;;;20.39;43.21
76973;BME280;65907;53.640;10.050;2023-06-01T10:46:58;101462.31;;;20.83;42.61
76973;BME280;65907;53.640;10.050;2023-06-01T10:49:53;101452.22;;;20.53;42.85
76973;BME280;65907;53.640;10.050;2023-06-01T10:52:28;101453.38;;;20.48;43.30
76973;BME280;65907;53.640;10.050;2023-06-01T10:54:54;101460.81;;;20.42;43.35
76973;BME280;65907;53.640;10.050;2023-06-01T10:57:22;101464.38;;;20.54;43.46
76973;BME280;65907;53.640;10.050;2023-06-01T11:02:35;101449.94;;;20.48;43.33
76973;BME280;65907;53.640;10.050;2023-06-01T11:07:51;101460.94;;;20.14;44.34
76973;BME280;65907;53.640;10.050;2023-06-01T11:13:11;101447.31;;;20.61;43.57
76973;BME280;65907;53.640;10.050;2023-06-01T11:15:38;101445.69;;;20.71;43.21
76973;BME280;65907;53.640;10.050;2023-06-01T11:20:51;101451.41;;;20.39;44.11
76973;BME280;65907;53.640;10.050;2023-06-01T11:23:18;101444.84;;;20.33;44.11
76973;BME280;65907;53.640;10.050;2023-06-01T11:25:44;101444.53;;;20.38;43.95
76973;BME280;65907;53.640;10.050;2023-06-01T11:28:12;101439.78;;;20.56;43.55
76973;BME280;65907;53.640;10.050;2023-06-01T11:30:40;101439.81;;;20.43;44.05
76973;BME280;65907;53.640;10.050;2023-06-01T11:33:06;101438.75;;;20.59;43.52
76973;BME280;65907;53.640;10.050;2023-06-01T11:35:32;101448.69;;;20.41;43.80
76973;BME280;65907;53.640;10.050;2023-06-01T11:37:58;101447.19;;;19.72;45.63
76973;BME280;65907;53.640;10.050;2023-06-01T11:40:23;101442.13;;;20.22;44.77
76973;BME280;65907;53.640;10.050;2023-06-01T11:42:48;101430.53;;;20.89;43.23
76973;BME280;65907;53.640;10.050;2023-06-01T11:45:15;101438.00;;;21.78;41.02
76973;BME280;65907;53.640;10.050;2023-06-01T11:47:43;101437.56;;;22.19;39.99
76973;BME280;65907;53.640;10.050;2023-06-01T11:50:23;101439.63;;;22.38;39.36
76973;BME280;65907;53.640;10.050;2023-06-01T11:52:50;101425.31;;;22.54;39.01
76973;BME280;65907;53.640;10.050;2023-06-01T11:55:15;101431.16;;;22.57;38.83
76973;BME280;65907;53.640;10.050;2023-06-01T11:57:42;101434.28;;;22.51;39.05
76973;BME280;65907;53.640;10.050;2023-06-01T12:00:10;101426.97;;;22.66;38.78
76973;BME280;65907;53.640;10.050;2023-06-01T12:02:37;101434.22;;;22.74;38.83
76973;BME280;65907;53.640;10.050;2023-06-01T12:05:04;101429.56;;;22.77;38.68
76973;BME280;65907;53.640;10.050;2023-06-01T12:07:46;101425.31;;;22.54;39.29
76973;BME280;65907;53.640;10.050;2023-06-01T12:10:13;101427.44;;;22.71;38.76
76973;BME280;65907;53.640;10.050;2023-06-01T12:12:40;101429.44;;;22.79;38.64
76973;BME280;65907;53.640;10.050;2023-06-01T12:15:07;101423.94;;;22.82;38.70
76973;BME280;65907;53.640;10.050;2023-06-01T12:20:10;101428.13;;;22.85;38.71
76973;BME280;65907;53.640;10.050;2023-06-01T12:22:36;101428.44;;;22.91;38.49
76973;BME280;65907;53.640;10.050;2023-06-01T12:25:05;101423.69;;;22.97;38.32
76973;BME280;65907;53.640;10.050;2023-06-01T12:27:33;101421.16;;;22.95;38.23
76973;BME280;65907;53.640;10.050;2023-06-01T12:30:01;101418.81;;;22.81;38.55
76973;BME280;65907;53.640;10.050;2023-06-01T12:32:37;101410.25;;;22.78;38.53
76973;BME280;65907;53.640;10.050;2023-06-01T12:35:07;101420.72;;;22.90;38.89
76973;BME280;65907;53.640;10.050;2023-06-01T12:37:33;101423.41;;;22.56;39.32
76973;BME280;65907;53.640;10.050;2023-06-01T12:39:59;101415.22;;;22.82;38.93
76973;BME280;65907;53.640;10.050;2023-06-01T12:42:35;101417.34;;;22.99;38.44
76973;BME280;65907;53.640;10.050;2023-06-01T12:45:01;101419.69;;;23.02;38.53
76973;BME280;65907;53.640;10.050;2023-06-01T12:47:32;101420.88;;;23.10;38.11
76973;BME280;65907;53.640;10.050;2023-06-01T12:50:03;101420.19;;;23.08;38.37
76973;BME280;65907;53.640;10.050;2023-06-01T12:52:31;101420.75;;;23.11;38.32
76973;BME280;65907;53.640;10.050;2023-06-01T12:54:56;101421.59;;;23.12;38.45
76973;BME280;65907;53.640;10.050;2023-06-01T12:57:22;101419.53;;;23.15;38.31
76973;BME280;65907;53.640;10.050;2023-06-01T12:59:47;101417.63;;;23.17;38.32
76973;BME280;65907;53.640;10.050;2023-06-01T13:02:13;101421.34;;;23.15;38.33
76973;BME280;65907;53.640;10.050;2023-06-01T13:04:41;101418.97;;;23.12;38.50
76973;BME280;65907;53.640;10.050;2023-06-01T13:07:07;101412.41;;;22.73;39.55
76973;BME280;65907;53.640;10.050;2023-06-01T13:09:32;101417.06;;;23.14;38.57
76973;BME280;65907;53.640;10.050;2023-06-01T13:11:58;101414.97;;;22.96;39.31
76973;BME280;65907;53.640;10.050;2023-06-01T13:14:23;101412.31;;;23.08;38.76
76973;BME280;65907;53.640;10.050;2023-06-01T13:16:48;101409.72;;;22.96;39.09
76973;BME280;65907;53.640;10.050;2023-06-01T13:19:14;101411.03;;;23.02;39.03
76973;BME280;65907;53.640;10.050;2023-06-01T13:21:39;101412.59;;;22.93;39.23
76973;BME280;65907;53.640;10.050;2023-06-01T13:24:04;101418.19;;;22.88;39.24
76973;BME280;65907;53.640;10.050;2023-06-01T13:26:30;101411.84;;;23.02;39.09
76973;BME280;65907;53.640;10.050;2023-06-01T13:28:55;101407.44;;;23.03;39.27
76973;BME280;65907;53.640;10.050;2023-06-01T13:31:20;101403.41;;;22.99;39.33